sensor_id;sensor_type;location;lat;lon;timestamp;P1;durP1;ratioP1;P2;durP2;ratioP2
4806;SDS011;2417;52.482;13.432;2024-03-02T00:01:52;101.60;;;48.77;;
4806;SDS011;2417;52.482;13.432;2024-03-02T00:04:20;103.07;;;49.83;;
4806;SDS011;2417;52.482;13.432;2024-03-02T00:06:50;109.20;;;51.03;;
4806;SDS011;2417;52.482;13.432;2024-03-02T00:09:18;102.73;;;47.97;;
4806;SDS011;2417;52.482;13.432;2024-03-02T00:11:47;98.87;;;47.37;;
4806;SDS011;2417;52.482;13.432;2024-03-02T00:14:15;95.53;;;48.10;;
4806;SDS011;2417;52.482;13.432;2024-03-02T00:16:44;100.93;;;49.70;;
4806;SDS011;2417;52.482;13.432;2024-03-02T00:19:13;97.73;;;47.97;;
4806;SDS011;2417;52.482;13.432;2024-03-02T00:21:41;105.60;;;48.60;;
4806;SDS011;2417;52.482;13.432;2024-03-02T00:24:12;102.23;;;48.90;;
4806;SDS011;2417;52.482;13.432;2024-03-02T00:26:45;94.50;;;45.77;;
4806;SDS011;2417;52.482;13.432;2024-03-02T00:29:13;96.17;;;49.10;;
4806;SDS011;2417;52.482;13.432;2024-03-02T00:31:45;94.70;;;47.60;;
4806;SDS011;2417;52.482;13.432;2024-03-02T00:34:13;93.63;;;44.87;;
4806;SDS011;2417;52.482;13.432;2024-03-02T00:36:43;92.77;;;46.83;;
4806;SDS011;2417;52.482;13.432;2024-03-02T00:39:12;96.83;;;46.40;;
4806;SDS011;2417;52.482;13.432;2024-03-02T00:41:40;92.77;;;46.40;;
4806;SDS011;2417;52.482;13.432;2024-03-02T00:44:10;92.10;;;46.40;;
4806;SDS011;2417;52.482;13.432;2024-03-02T00:46:40;93.63;;;46.77;;
4806;SDS011;2417;52.482;13.432;2024-03-02T00:49:12;90.57;;;46.60;;
4806;SDS011;2417;52.482;13.432;2024-03-02T00:51:46;88.97;;;47.10;;
4806;SDS011;2417;52.482;13.432;2024-03-02T00:54:15;93.03;;;46.30;;
4806;SDS011;2417;52.482;13.432;2024-03-02T00:56:46;108.87;;;50.37;;
4806;SDS011;2417;52.482;13.432;2024-03-02T00:59:15;105.67;;;49.17;;
4806;SDS011;2417;52.482;13.432;2024-03-02T01:01:43;101.07;;;48.70;;
4806;SDS011;2417;52.482;13.432;2024-03-02T01:04:12;94.80;;;47.60;;
4806;SDS011;2417;52.482;13.432;2024-03-02T01:06:40;96.87;;;48.57;;
4806;SDS011;2417;52.482;13.432;2024-03-02T01:09:09;109.60;;;49.67;;
4806;SDS011;2417;52.482;13.432;2024-03-02T01:11:38;110.03;;;50.87;;
4806;SDS011;2417;52.482;13.432;2024-03-02T01:14:06;105.70;;;51.77;;
4806;SDS011;2417;52.482;13.432;2024-03-02T01:16:34;114.57;;;54.00;;
4806;SDS011;2417;52.482;13.432;2024-03-02T01:19:02;113.67;;;54.60;;
4806;SDS011;2417;52.482;13.432;2024-03-02T01:21:34;119.60;;;56.27;;
4806;SDS011;2417;52.482;13.432;2024-03-02T01:24:02;121.53;;;55.23;;
4806;SDS011;2417;52.482;13.432;2024-03-02T01:26:30;116.77;;;57.97;;
4806;SDS011;2417;52.482;13.432;2024-03-02T01:28:58;124.63;;;57.03;;
4806;SDS011;2417;52.482;13.432;2024-03-02T01:31:26;128.90;;;58.43;;
4806;SDS011;2417;52.482;13.432;2024-03-02T01:33:54;132.23;;;58.27;;
4806;SDS011;2417;52.482;13.432;2024-03-02T01:36:22;134.77;;;58.53;;
4806;SDS011;2417;52.482;13.432;2024-03-02T01:38:52;146.40;;;61.83;;
4806;SDS011;2417;52.482;13.432;2024-03-02T01:41:20;127.07;;;59.47;;
4806;SDS011;2417;52.482;13.432;2024-03-02T01:43:48;133.80;;;61.10;;
4806;SDS011;2417;52.482;13.432;2024-03-02T01:46:16;130.90;;;58.50;;
4806;SDS011;2417;52.482;13.432;2024-03-02T01:48:44;138.90;;;62.60;;
4806;SDS011;2417;52.482;13.432;2024-03-02T01:51:12;147.03;;;63.23;;
4806;SDS011;2417;52.482;13.432;2024-03-02T01:53:40;157.27;;;64.87;;
4806;SDS011;2417;52.482;13.432;2024-03-02T01:56:09;154.73;;;64.57;;
4806;SDS011;2417;52.482;13.432;2024-03-02T01:58:37;140.67;;;62.40;;
4806;SDS011;2417;52.482;13.432;2024-03-02T02:01:05;154.83;;;67.00;;
4806;SDS011;2417;52.482;13.432;2024-03-02T02:03:35;149.43;;;64.70;;
4806;SDS011;2417;52.482;13.432;2024-03-02T02:06:03;160.03;;;66.50;;
4806;SDS011;2417;52.482;13.432;2024-03-02T02:08:31;156.10;;;68.00;;
4806;SDS011;2417;52.482;13.432;2024-03-02T02:10:59;160.70;;;69.07;;
4806;SDS011;2417;52.482;13.432;2024-03-02T02:13:29;152.73;;;66.40;;
4806;SDS011;2417;52.482;13.432;2024-03-02T02:16:03;170.33;;;68.47;;
4806;SDS011;2417;52.482;13.432;2024-03-02T02:18:32;153.03;;;66.63;;
4806;SDS011;2417;52.482;13.432;2024-03-02T02:20:59;170.20;;;68.20;;
4806;SDS011;2417;52.482;13.432;2024-03-02T02:23:28;168.87;;;67.37;;
4806;SDS011;2417;52.482;13.432;2024-03-02T02:25:57;166.93;;;68.80;;
4806;SDS011;2417;52.482;13.432;2024-03-02T02:28:25;181.50;;;75.17;;
4806;SDS011;2417;52.482;13.432;2024-03-02T02:30:54;187.80;;;70.90;;
4806;SDS011;2417;52.482;13.432;2024-03-02T02:33:23;173.43;;;69.97;;
4806;SDS011;2417;52.482;13.432;2024-03-02T02:35:52;196.63;;;73.13;;
4806;SDS011;2417;52.482;13.432;2024-03-02T02:38:21;190.00;;;66.87;;
4806;SDS011;2417;52.482;13.432;2024-03-02T02:40:50;195.50;;;66.60;;
4806;SDS011;2417;52.482;13.432;2024-03-02T02:43:18;179.67;;;69.47;;
4806;SDS011;2417;52.482;13.432;2024-03-02T02:45:46;192.63;;;72.70;;
4806;SDS011;2417;52.482;13.432;2024-03-02T02:48:14;192.10;;;69.70;;
4806;SDS011;2417;52.482;13.432;2024-03-02T02:50:42;195.87;;;73.40;;
4806;SDS011;2417;52.482;13.432;2024-03-02T02:53:10;204.43;;;72.97;;
4806;SDS011;2417;52.482;13.432;2024-03-02T02:55:39;208.17;;;76.57;;
4806;SDS011;2417;52.482;13.432;2024-03-02T02:58:08;212.90;;;77.43;;
4806;SDS011;2417;52.482;13.432;2024-03-02T03:00:36;191.80;;;74.97;;
4806;SDS011;2417;52.482;13.432;2024-03-02T03:03:04;212.77;;;76.93;;
4806;SDS011;2417;52.482;13.432;2024-03-02T03:05:32;195.37;;;74.17;;
4806;SDS011;2417;52.482;13.432;2024-03-02T03:08:00;207.23;;;76.13;;
4806;SDS011;2417;52.482;13.432;2024-03-02T03:10:28;209.20;;;75.70;;
4806;SDS011;2417;52.482;13.432;2024-03-02T03:12:56;206.53;;;75.40;;
4806;SDS011;2417;52.482;13.432;2024-03-02T03:15:26;196.93;;;72.43;;
4806;SDS011;2417;52.482;13.432;2024-03-02T03:17:53;202.70;;;71.23;;
4806;SDS011;2417;52.482;13.432;2024-03-02T03:20:22;221.87;;;73.47;;
4806;SDS011;2417;52.482;13.432;2024-03-02T03:22:57;199.57;;;70.03;;
4806;SDS011;2417;52.482;13.432;2024-03-02T03:25:30;199.20;;;69.73;;
4806;SDS011;2417;52.482;13.432;2024-03-02T03:27:58;206.70;;;71.70;;
4806;SDS011;2417;52.482;13.432;2024-03-02T03:30:27;201.67;;;72.77;;
4806;SDS011;2417;52.482;13.432;2024-03-02T03:32:55;216.03;;;74.17;;
4806;SDS011;2417;52.482;13.432;2024-03-02T03:35:22;198.27;;;72.27;;
4806;SDS011;2417;52.482;13.432;2024-03-02T03:37:50;197.73;;;70.27;;
4806;SDS011;2417;52.482;13.432;2024-03-02T03:40:18;208.50;;;68.50;;
4806;SDS011;2417;52.482;13.432;2024-03-02T03:42:48;191.30;;;69.77;;
4806;SDS011;2417;52.482;13.432;2024-03-02T03:45:17;194.57;;;70.03;;
4806;SDS011;2417;52.482;13.432;2024-03-02T03:47:46;186.57;;;67.93;;
4806;SDS011;2417;52.482;13.432;2024-03-02T03:50:14;197.07;;;68.20;;
4806;SDS011;2417;52.482;13.432;2024-03-02T03:52:42;194.70;;;69.57;;
4806;SDS011;2417;52.482;13.432;2024-03-02T03:55:11;181.37;;;66.83;;
4806;SDS011;2417;52.482;13.432;2024-03-02T03:57:38;183.13;;;65.27;;
4806;SDS011;2417;52.482;13.432;2024-03-02T04:00:07;184.00;;;67.80;;
4806;SDS011;2417;52.482;13.432;2024-03-02T04:02:39;183.33;;;66.20;;
4806;SDS011;2417;52.482;13.432;2024-03-02T04:05:09;177.47;;;63.37;;
4806;SDS011;2417;52.482;13.432;2024-03-02T04:07:38;169.77;;;65.27;;
4806;SDS011;2417;52.482;13.432;2024-03-02T04:10:07;177.17;;;65.67;;
4806;SDS011;2417;52.482;13.432;2024-03-02T04:12:36;181.53;;;65.90;;
4806;SDS011;2417;52.482;13.432;2024-03-02T04:15:04;174.27;;;64.70;;
4806;SDS011;2417;52.482;13.432;2024-03-02T04:17:33;167.77;;;63.23;;
4806;SDS011;2417;52.482;13.432;2024-03-02T04:20:02;169.27;;;63.77;;
4806;SDS011;2417;52.482;13.432;2024-03-02T04:22:34;161.30;;;63.73;;
4806;SDS011;2417;52.482;13.432;2024-03-02T04:25:02;181.97;;;66.00;;
4806;SDS011;2417;52.482;13.432;2024-03-02T04:27:31;171.37;;;65.07;;
4806;SDS011;2417;52.482;13.432;2024-03-02T04:30:00;165.83;;;60.37;;
4806;SDS011;2417;52.482;13.432;2024-03-02T04:32:28;165.03;;;64.80;;
4806;SDS011;2417;52.482;13.432;2024-03-02T04:34:57;163.33;;;60.80;;
4806;SDS011;2417;52.482;13.432;2024-03-02T04:37:25;178.93;;;62.17;;
4806;SDS011;2417;52.482;13.432;2024-03-02T04:39:55;169.13;;;61.87;;
4806;SDS011;2417;52.482;13.432;2024-03-02T04:42:23;167.57;;;63.50;;
4806;SDS011;2417;52.482;13.432;2024-03-02T04:44:51;175.37;;;61.97;;
4806;SDS011;2417;52.482;13.432;2024-03-02T04:47:19;172.07;;;62.27;;
4806;SDS011;2417;52.482;13.432;2024-03-02T04:49:47;170.00;;;61.53;;
4806;SDS011;2417;52.482;13.432;2024-03-02T04:52:15;194.13;;;68.33;;
4806;SDS011;2417;52.482;13.432;2024-03-02T04:54:43;167.83;;;62.27;;
4806;SDS011;2417;52.482;13.432;2024-03-02T04:57:28;173.83;;;62.13;;
4806;SDS011;2417;52.482;13.432;2024-03-02T04:59:55;157.07;;;60.57;;
4806;SDS011;2417;52.482;13.432;2024-03-02T05:02:24;176.30;;;61.10;;
4806;SDS011;2417;52.482;13.432;2024-03-02T05:04:52;171.40;;;61.57;;
4806;SDS011;2417;52.482;13.432;2024-03-02T05:07:20;186.83;;;61.83;;
4806;SDS011;2417;52.482;13.432;2024-03-02T05:09:48;167.30;;;59.60;;
4806;SDS011;2417;52.482;13.432;2024-03-02T05:12:16;173.70;;;58.57;;
4806;SDS011;2417;52.482;13.432;2024-03-02T05:15:04;168.17;;;60.87;;
4806;SDS011;2417;52.482;13.432;2024-03-02T05:17:32;173.93;;;63.40;;
4806;SDS011;2417;52.482;13.432;2024-03-02T05:20:00;185.27;;;63.07;;
4806;SDS011;2417;52.482;13.432;2024-03-02T05:22:27;197.53;;;66.23;;
4806;SDS011;2417;52.482;13.432;2024-03-02T05:24:56;176.90;;;62.80;;
4806;SDS011;2417;52.482;13.432;2024-03-02T05:27:26;186.90;;;62.90;;
4806;SDS011;2417;52.482;13.432;2024-03-02T05:29:54;182.47;;;65.30;;
4806;SDS011;2417;52.482;13.432;2024-03-02T05:32:24;180.17;;;64.43;;
4806;SDS011;2417;52.482;13.432;2024-03-02T05:34:52;181.23;;;64.97;;
4806;SDS011;2417;52.482;13.432;2024-03-02T05:37:20;197.90;;;66.23;;
4806;SDS011;2417;52.482;13.432;2024-03-02T05:39:47;218.17;;;68.43;;
4806;SDS011;2417;52.482;13.432;2024-03-02T05:42:16;203.80;;;67.03;;
4806;SDS011;2417;52.482;13.432;2024-03-02T05:44:44;219.50;;;70.90;;
4806;SDS011;2417;52.482;13.432;2024-03-02T05:47:12;183.23;;;67.67;;
4806;SDS011;2417;52.482;13.432;2024-03-02T05:49:41;199.80;;;65.60;;
4806;SDS011;2417;52.482;13.432;2024-03-02T05:52:09;194.00;;;67.17;;
4806;SDS011;2417;52.482;13.432;2024-03-02T05:54:38;250.47;;;73.73;;
4806;SDS011;2417;52.482;13.432;2024-03-02T05:57:06;220.83;;;72.27;;
4806;SDS011;2417;52.482;13.432;2024-03-02T05:59:55;229.67;;;73.07;;
4806;SDS011;2417;52.482;13.432;2024-03-02T06:02:23;228.77;;;73.77;;
4806;SDS011;2417;52.482;13.432;2024-03-02T06:04:54;221.30;;;74.20;;
4806;SDS011;2417;52.482;13.432;2024-03-02T06:07:43;234.83;;;73.60;;
4806;SDS011;2417;52.482;13.432;2024-03-02T06:10:11;219.20;;;74.10;;
4806;SDS011;2417;52.482;13.432;2024-03-02T06:12:40;232.27;;;73.33;;
4806;SDS011;2417;52.482;13.432;2024-03-02T06:15:08;241.93;;;75.53;;
4806;SDS011;2417;52.482;13.432;2024-03-02T06:17:36;248.37;;;74.57;;
4806;SDS011;2417;52.482;13.432;2024-03-02T06:20:07;248.00;;;76.33;;
4806;SDS011;2417;52.482;13.432;2024-03-02T06:22:36;239.57;;;74.30;;
4806;SDS011;2417;52.482;13.432;2024-03-02T06:25:04;280.97;;;77.77;;
4806;SDS011;2417;52.482;13.432;2024-03-02T06:27:32;250.17;;;78.97;;
4806;SDS011;2417;52.482;13.432;2024-03-02T06:30:01;237.03;;;73.87;;
4806;SDS011;2417;52.482;13.432;2024-03-02T06:32:30;274.83;;;77.10;;
4806;SDS011;2417;52.482;13.432;2024-03-02T06:35:02;262.30;;;74.73;;
4806;SDS011;2417;52.482;13.432;2024-03-02T06:37:33;272.97;;;81.17;;
4806;SDS011;2417;52.482;13.432;2024-03-02T06:40:01;263.50;;;81.20;;
4806;SDS011;2417;52.482;13.432;2024-03-02T06:42:29;243.00;;;76.27;;
4806;SDS011;2417;52.482;13.432;2024-03-02T06:45:00;258.50;;;76.47;;
4806;SDS011;2417;52.482;13.432;2024-03-02T06:47:28;264.20;;;79.20;;
4806;SDS011;2417;52.482;13.432;2024-03-02T06:49:56;258.30;;;77.87;;
4806;SDS011;2417;52.482;13.432;2024-03-02T06:52:25;279.07;;;78.17;;
4806;SDS011;2417;52.482;13.432;2024-03-02T06:54:54;248.90;;;76.50;;
4806;SDS011;2417;52.482;13.432;2024-03-02T06:57:22;263.90;;;79.50;;
4806;SDS011;2417;52.482;13.432;2024-03-02T06:59:51;268.77;;;77.63;;
4806;SDS011;2417;52.482;13.432;2024-03-02T07:02:21;268.60;;;80.00;;
4806;SDS011;2417;52.482;13.432;2024-03-02T07:04:49;258.07;;;77.10;;
4806;SDS011;2417;52.482;13.432;2024-03-02T07:07:18;255.13;;;78.97;;
4806;SDS011;2417;52.482;13.432;2024-03-02T07:09:46;251.50;;;75.67;;
4806;SDS011;2417;52.482;13.432;2024-03-02T07:12:15;275.90;;;77.40;;
4806;SDS011;2417;52.482;13.432;2024-03-02T07:14:43;240.47;;;76.87;;
4806;SDS011;2417;52.482;13.432;2024-03-02T07:17:38;245.13;;;74.67;;
4806;SDS011;2417;52.482;13.432;2024-03-02T07:20:06;242.20;;;74.70;;
4806;SDS011;2417;52.482;13.432;2024-03-02T07:22:34;242.60;;;76.53;;
4806;SDS011;2417;52.482;13.432;2024-03-02T07:25:07;252.53;;;76.63;;
4806;SDS011;2417;52.482;13.432;2024-03-02T07:27:57;249.60;;;78.23;;
4806;SDS011;2417;52.482;13.432;2024-03-02T07:30:25;232.17;;;73.60;;
4806;SDS011;2417;52.482;13.432;2024-03-02T07:32:55;239.57;;;74.83;;
4806;SDS011;2417;52.482;13.432;2024-03-02T07:35:23;222.10;;;72.63;;
4806;SDS011;2417;52.482;13.432;2024-03-02T07:37:54;221.10;;;72.17;;
4806;SDS011;2417;52.482;13.432;2024-03-02T07:40:23;237.03;;;74.27;;
4806;SDS011;2417;52.482;13.432;2024-03-02T07:42:51;238.33;;;72.80;;
4806;SDS011;2417;52.482;13.432;2024-03-02T07:45:21;233.33;;;69.13;;
4806;SDS011;2417;52.482;13.432;2024-03-02T07:47:49;200.30;;;69.30;;
4806;SDS011;2417;52.482;13.432;2024-03-02T07:50:17;205.80;;;69.30;;
4806;SDS011;2417;52.482;13.432;2024-03-02T07:52:47;199.57;;;67.37;;
4806;SDS011;2417;52.482;13.432;2024-03-02T07:55:15;194.90;;;66.77;;
4806;SDS011;2417;52.482;13.432;2024-03-02T07:57:43;183.77;;;67.37;;
4806;SDS011;2417;52.482;13.432;2024-03-02T08:00:11;207.00;;;68.97;;
4806;SDS011;2417;52.482;13.432;2024-03-02T08:02:42;201.03;;;68.90;;
4806;SDS011;2417;52.482;13.432;2024-03-02T08:05:10;211.87;;;70.73;;
4806;SDS011;2417;52.482;13.432;2024-03-02T08:07:38;203.77;;;68.97;;
4806;SDS011;2417;52.482;13.432;2024-03-02T08:10:08;186.80;;;68.83;;
4806;SDS011;2417;52.482;13.432;2024-03-02T08:12:35;199.87;;;68.20;;
4806;SDS011;2417;52.482;13.432;2024-03-02T08:15:04;199.27;;;73.63;;
4806;SDS011;2417;52.482;13.432;2024-03-02T08:17:32;188.83;;;71.67;;
4806;SDS011;2417;52.482;13.432;2024-03-02T08:20:05;182.37;;;69.63;;
4806;SDS011;2417;52.482;13.432;2024-03-02T08:22:34;175.50;;;66.37;;
4806;SDS011;2417;52.482;13.432;2024-03-02T08:25:02;190.13;;;68.47;;
4806;SDS011;2417;52.482;13.432;2024-03-02T08:27:31;172.10;;;64.00;;
4806;SDS011;2417;52.482;13.432;2024-03-02T08:30:00;166.77;;;61.70;;
4806;SDS011;2417;52.482;13.432;2024-03-02T08:32:30;167.20;;;61.60;;
4806;SDS011;2417;52.482;13.432;2024-03-02T08:34:58;162.13;;;61.17;;
4806;SDS011;2417;52.482;13.432;2024-03-02T08:37:28;151.73;;;58.90;;
4806;SDS011;2417;52.482;13.432;2024-03-02T08:39:56;165.90;;;62.00;;
4806;SDS011;2417;52.482;13.432;2024-03-02T08:42:25;159.70;;;58.27;;
4806;SDS011;2417;52.482;13.432;2024-03-02T08:44:54;160.83;;;60.97;;
4806;SDS011;2417;52.482;13.432;2024-03-02T08:47:23;140.83;;;59.13;;
4806;SDS011;2417;52.482;13.432;2024-03-02T08:49:50;133.17;;;56.37;;
4806;SDS011;2417;52.482;13.432;2024-03-02T08:52:18;147.07;;;58.47;;
4806;SDS011;2417;52.482;13.432;2024-03-02T08:54:48;147.90;;;57.20;;
4806;SDS011;2417;52.482;13.432;2024-03-02T08:57:16;142.00;;;54.67;;
4806;SDS011;2417;52.482;13.432;2024-03-02T08:59:44;137.40;;;55.37;;
4806;SDS011;2417;52.482;13.432;2024-03-02T09:02:12;137.90;;;56.13;;
4806;SDS011;2417;52.482;13.432;2024-03-02T09:04:39;124.93;;;55.83;;
4806;SDS011;2417;52.482;13.432;2024-03-02T09:07:08;131.80;;;56.07;;
4806;SDS011;2417;52.482;13.432;2024-03-02T09:09:35;145.97;;;58.67;;
4806;SDS011;2417;52.482;13.432;2024-03-02T09:12:06;134.10;;;57.17;;
4806;SDS011;2417;52.482;13.432;2024-03-02T09:14:36;137.10;;;56.50;;
4806;SDS011;2417;52.482;13.432;2024-03-02T09:17:04;147.70;;;58.07;;
4806;SDS011;2417;52.482;13.432;2024-03-02T09:19:32;133.50;;;56.87;;
4806;SDS011;2417;52.482;13.432;2024-03-02T09:22:00;130.20;;;55.60;;
4806;SDS011;2417;52.482;13.432;2024-03-02T09:24:29;123.77;;;53.87;;
4806;SDS011;2417;52.482;13.432;2024-03-02T09:26:57;113.33;;;50.97;;
4806;SDS011;2417;52.482;13.432;2024-03-02T09:29:27;113.67;;;49.97;;
4806;SDS011;2417;52.482;13.432;2024-03-02T09:31:55;115.50;;;51.50;;
4806;SDS011;2417;52.482;13.432;2024-03-02T09:34:26;120.60;;;50.87;;
4806;SDS011;2417;52.482;13.432;2024-03-02T09:36:54;116.60;;;49.53;;
4806;SDS011;2417;52.482;13.432;2024-03-02T09:39:22;109.97;;;48.60;;
4806;SDS011;2417;52.482;13.432;2024-03-02T09:41:52;139.10;;;61.60;;
4806;SDS011;2417;52.482;13.432;2024-03-02T09:44:20;98.90;;;43.43;;
4806;SDS011;2417;52.482;13.432;2024-03-02T09:46:50;98.73;;;44.70;;
4806;SDS011;2417;52.482;13.432;2024-03-02T09:49:18;92.07;;;43.63;;
4806;SDS011;2417;52.482;13.432;2024-03-02T09:51:47;90.57;;;42.67;;
4806;SDS011;2417;52.482;13.432;2024-03-02T09:54:16;84.93;;;39.30;;
4806;SDS011;2417;52.482;13.432;2024-03-02T09:56:49;78.77;;;40.70;;
4806;SDS011;2417;52.482;13.432;2024-03-02T09:59:18;88.23;;;38.70;;
4806;SDS011;2417;52.482;13.432;2024-03-02T10:01:58;100.43;;;44.47;;
4806;SDS011;2417;52.482;13.432;2024-03-02T10:04:27;73.33;;;38.20;;
4806;SDS011;2417;52.482;13.432;2024-03-02T10:07:09;79.10;;;40.00;;
4806;SDS011;2417;52.482;13.432;2024-03-02T10:09:37;74.10;;;37.80;;
4806;SDS011;2417;52.482;13.432;2024-03-02T10:12:06;68.73;;;35.87;;
4806;SDS011;2417;52.482;13.432;2024-03-02T10:14:34;63.93;;;32.93;;
4806;SDS011;2417;52.482;13.432;2024-03-02T10:17:05;62.60;;;32.17;;
4806;SDS011;2417;52.482;13.432;2024-03-02T10:19:34;59.87;;;32.83;;
4806;SDS011;2417;52.482;13.432;2024-03-02T10:22:04;60.03;;;31.00;;
4806;SDS011;2417;52.482;13.432;2024-03-02T10:24:36;54.50;;;29.17;;
4806;SDS011;2417;52.482;13.432;2024-03-02T10:27:06;50.97;;;28.67;;
4806;SDS011;2417;52.482;13.432;2024-03-02T10:29:38;56.03;;;28.37;;
4806;SDS011;2417;52.482;13.432;2024-03-02T10:32:10;55.93;;;27.90;;
4806;SDS011;2417;52.482;13.432;2024-03-02T10:34:39;48.50;;;26.60;;
4806;SDS011;2417;52.482;13.432;2024-03-02T10:37:08;53.00;;;29.03;;
4806;SDS011;2417;52.482;13.432;2024-03-02T10:39:37;47.93;;;25.20;;
4806;SDS011;2417;52.482;13.432;2024-03-02T10:42:07;52.83;;;26.57;;
4806;SDS011;2417;52.482;13.432;2024-03-02T10:44:35;52.00;;;24.87;;
4806;SDS011;2417;52.482;13.432;2024-03-02T10:47:05;46.83;;;25.37;;
4806;SDS011;2417;52.482;13.432;2024-03-02T10:49:37;50.07;;;25.43;;
4806;SDS011;2417;52.482;13.432;2024-03-02T10:52:06;57.40;;;25.47;;
4806;SDS011;2417;52.482;13.432;2024-03-02T10:54:36;44.17;;;24.67;;
4806;SDS011;2417;52.482;13.432;2024-03-02T10:57:07;50.13;;;24.80;;
4806;SDS011;2417;52.482;13.432;2024-03-02T10:59:37;48.90;;;26.47;;
4806;SDS011;2417;52.482;13.432;2024-03-02T11:02:09;45.97;;;23.90;;
4806;SDS011;2417;52.482;13.432;2024-03-02T11:04:40;40.80;;;22.73;;
4806;SDS011;2417;52.482;13.432;2024-03-02T11:07:10;43.63;;;22.63;;
4806;SDS011;2417;52.482;13.432;2024-03-02T11:09:38;40.60;;;22.80;;
4806;SDS011;2417;52.482;13.432;2024-03-02T11:12:10;41.37;;;21.53;;
4806;SDS011;2417;52.482;13.432;2024-03-02T11:14:40;49.57;;;23.50;;
4806;SDS011;2417;52.482;13.432;2024-03-02T11:17:09;44.87;;;23.97;;
4806;SDS011;2417;52.482;13.432;2024-03-02T11:19:38;41.33;;;22.33;;
4806;SDS011;2417;52.482;13.432;2024-03-02T11:22:07;46.57;;;25.23;;
4806;SDS011;2417;52.482;13.432;2024-03-02T11:24:36;37.93;;;22.80;;
4806;SDS011;2417;52.482;13.432;2024-03-02T11:27:05;44.60;;;23.03;;
4806;SDS011;2417;52.482;13.432;2024-03-02T11:29:44;47.63;;;26.20;;
4806;SDS011;2417;52.482;13.432;2024-03-02T11:32:16;39.87;;;21.83;;
4806;SDS011;2417;52.482;13.432;2024-03-02T11:34:48;46.83;;;24.40;;
4806;SDS011;2417;52.482;13.432;2024-03-02T11:37:19;43.03;;;23.30;;
4806;SDS011;2417;52.482;13.432;2024-03-02T11:40:08;41.73;;;23.43;;
4806;SDS011;2417;52.482;13.432;2024-03-02T11:42:37;39.80;;;21.63;;
4806;SDS011;2417;52.482;13.432;2024-03-02T11:45:05;50.73;;;25.33;;
4806;SDS011;2417;52.482;13.432;2024-03-02T11:47:37;46.40;;;22.47;;
4806;SDS011;2417;52.482;13.432;2024-03-02T11:50:06;41.93;;;22.17;;
4806;SDS011;2417;52.482;13.432;2024-03-02T11:52:35;46.67;;;24.53;;
4806;SDS011;2417;52.482;13.432;2024-03-02T11:55:04;43.50;;;22.80;;
4806;SDS011;2417;52.482;13.432;2024-03-02T11:57:32;45.23;;;23.07;;
4806;SDS011;2417;52.482;13.432;2024-03-02T12:00:00;42.80;;;23.97;;
4806;SDS011;2417;52.482;13.432;2024-03-02T12:02:30;42.00;;;21.83;;
4806;SDS011;2417;52.482;13.432;2024-03-02T12:04:58;42.73;;;22.50;;
4806;SDS011;2417;52.482;13.432;2024-03-02T12:07:26;41.43;;;22.47;;
4806;SDS011;2417;52.482;13.432;2024-03-02T12:10:00;37.83;;;21.70;;
4806;SDS011;2417;52.482;13.432;2024-03-02T12:12:29;39.77;;;21.40;;
4806;SDS011;2417;52.482;13.432;2024-03-02T12:14:57;35.50;;;21.03;;
4806;SDS011;2417;52.482;13.432;2024-03-02T12:17:27;49.83;;;24.50;;
4806;SDS011;2417;52.482;13.432;2024-03-02T12:19:55;40.47;;;20.80;;
4806;SDS011;2417;52.482;13.432;2024-03-02T12:22:23;40.10;;;21.80;;
4806;SDS011;2417;52.482;13.432;2024-03-02T12:24:51;38.20;;;20.67;;
4806;SDS011;2417;52.482;13.432;2024-03-02T12:27:21;42.20;;;22.70;;
4806;SDS011;2417;52.482;13.432;2024-03-02T12:29:49;39.33;;;21.03;;
4806;SDS011;2417;52.482;13.432;2024-03-02T12:32:17;38.50;;;20.53;;
4806;SDS011;2417;52.482;13.432;2024-03-02T12:34:46;37.90;;;21.70;;
4806;SDS011;2417;52.482;13.432;2024-03-02T12:37:14;35.90;;;20.80;;
4806;SDS011;2417;52.482;13.432;2024-03-02T12:39:44;39.07;;;19.80;;
4806;SDS011;2417;52.482;13.432;2024-03-02T12:42:12;36.80;;;20.67;;
4806;SDS011;2417;52.482;13.432;2024-03-02T12:44:41;34.17;;;19.83;;
4806;SDS011;2417;52.482;13.432;2024-03-02T12:47:09;33.60;;;18.83;;
4806;SDS011;2417;52.482;13.432;2024-03-02T12:49:39;43.67;;;22.00;;
4806;SDS011;2417;52.482;13.432;2024-03-02T12:52:07;42.77;;;21.67;;
4806;SDS011;2417;52.482;13.432;2024-03-02T12:54:35;39.43;;;22.07;;
4806;SDS011;2417;52.482;13.432;2024-03-02T12:57:03;35.10;;;21.13;;
4806;SDS011;2417;52.482;13.432;2024-03-02T12:59:31;36.27;;;21.50;;
4806;SDS011;2417;52.482;13.432;2024-03-02T13:02:01;36.33;;;20.50;;
4806;SDS011;2417;52.482;13.432;2024-03-02T13:04:29;35.33;;;20.80;;
4806;SDS011;2417;52.482;13.432;2024-03-02T13:06:57;36.80;;;21.40;;
4806;SDS011;2417;52.482;13.432;2024-03-02T13:09:31;36.17;;;21.17;;
4806;SDS011;2417;52.482;13.432;2024-03-02T13:12:00;40.90;;;21.40;;
4806;SDS011;2417;52.482;13.432;2024-03-02T13:14:28;33.33;;;20.63;;
4806;SDS011;2417;52.482;13.432;2024-03-02T13:17:01;36.40;;;19.27;;
4806;SDS011;2417;52.482;13.432;2024-03-02T13:19:31;30.73;;;18.60;;
4806;SDS011;2417;52.482;13.432;2024-03-02T13:21:59;33.60;;;19.47;;
4806;SDS011;2417;52.482;13.432;2024-03-02T13:24:28;34.57;;;19.13;;
4806;SDS011;2417;52.482;13.432;2024-03-02T13:26:56;34.70;;;21.13;;
4806;SDS011;2417;52.482;13.432;2024-03-02T13:29:24;34.53;;;20.60;;
4806;SDS011;2417;52.482;13.432;2024-03-02T13:31:52;33.67;;;20.03;;
4806;SDS011;2417;52.482;13.432;2024-03-02T13:34:22;34.40;;;19.53;;
4806;SDS011;2417;52.482;13.432;2024-03-02T13:36:50;32.97;;;18.30;;
4806;SDS011;2417;52.482;13.432;2024-03-02T13:39:18;38.23;;;20.73;;
4806;SDS011;2417;52.482;13.432;2024-03-02T13:41:48;34.13;;;19.83;;
4806;SDS011;2417;52.482;13.432;2024-03-02T13:44:20;30.97;;;19.03;;
4806;SDS011;2417;52.482;13.432;2024-03-02T13:46:48;29.83;;;17.50;;
4806;SDS011;2417;52.482;13.432;2024-03-02T13:49:16;31.17;;;18.07;;
4806;SDS011;2417;52.482;13.432;2024-03-02T13:51:45;35.87;;;20.70;;
4806;SDS011;2417;52.482;13.432;2024-03-02T13:54:13;34.23;;;18.50;;
4806;SDS011;2417;52.482;13.432;2024-03-02T13:56:41;35.83;;;18.67;;
4806;SDS011;2417;52.482;13.432;2024-03-02T13:59:09;27.77;;;16.30;;
4806;SDS011;2417;52.482;13.432;2024-03-02T14:01:36;30.30;;;16.87;;
4806;SDS011;2417;52.482;13.432;2024-03-02T14:04:04;29.70;;;16.60;;
4806;SDS011;2417;52.482;13.432;2024-03-02T14:06:32;31.70;;;19.27;;
4806;SDS011;2417;52.482;13.432;2024-03-02T14:09:02;36.40;;;18.40;;
4806;SDS011;2417;52.482;13.432;2024-03-02T14:11:30;27.10;;;15.80;;
4806;SDS011;2417;52.482;13.432;2024-03-02T14:13:58;32.10;;;17.97;;
4806;SDS011;2417;52.482;13.432;2024-03-02T14:16:27;31.37;;;17.40;;
4806;SDS011;2417;52.482;13.432;2024-03-02T14:18:54;35.97;;;19.67;;
4806;SDS011;2417;52.482;13.432;2024-03-02T14:21:23;30.73;;;15.97;;
4806;SDS011;2417;52.482;13.432;2024-03-02T14:23:51;26.10;;;15.20;;
4806;SDS011;2417;52.482;13.432;2024-03-02T14:26:20;27.80;;;15.37;;
4806;SDS011;2417;52.482;13.432;2024-03-02T14:28:48;30.80;;;16.20;;
4806;SDS011;2417;52.482;13.432;2024-03-02T14:31:19;28.80;;;15.47;;
4806;SDS011;2417;52.482;13.432;2024-03-02T14:33:46;29.57;;;15.90;;
4806;SDS011;2417;52.482;13.432;2024-03-02T14:36:14;38.53;;;19.13;;
4806;SDS011;2417;52.482;13.432;2024-03-02T14:38:42;33.90;;;17.60;;